createdAt,value
2018-11-25T00:00:02.847Z,23.57
2018-11-25T00:02:31.023Z,21.37
2018-11-25T00:04:59.210Z,22.32
2018-11-25T00:07:30.191Z,23.02
2018-11-25T00:09:55.598Z,21.68
2018-11-25T00:12:23.778Z,22.37
2018-11-25T00:14:51.955Z,24.20
2018-11-25T00:17:20.207Z,22.77
2018-11-25T00:19:48.335Z,20.88
2018-11-25T00:22:17.482Z,24.43
2018-11-25T00:24:45.635Z,25.70
2018-11-25T00:27:13.822Z,20.68
2018-11-25T00:29:42.006Z,22.48
2018-11-25T00:32:10.202Z,23.27
2018-11-25T00:34:38.430Z,22.55
2018-11-25T00:37:06.570Z,23.75
2018-11-25T00:39:34.744Z,23.90
2018-11-25T00:42:02.949Z,22.65
2018-11-25T00:44:31.122Z,22.35
2018-11-25T00:46:59.319Z,20.80
2018-11-25T00:49:27.494Z,25.50
2018-11-25T00:51:55.691Z,23.70
2018-11-25T00:54:23.874Z,23.73
2018-11-25T00:56:52.068Z,20.35
2018-11-25T00:59:20.240Z,25.45
2018-11-25T01:01:48.454Z,23.20
2018-11-25T01:04:16.628Z,22.73
2018-11-25T01:06:44.804Z,27.65
2018-11-25T01:09:13.003Z,20.05
2018-11-25T01:11:41.187Z,20.37
2018-11-25T01:14:09.290Z,20.17
2018-11-25T01:16:37.459Z,24.52
2018-11-25T01:19:05.655Z,23.57
2018-11-25T01:21:33.821Z,22.85
2018-11-25T01:24:02.030Z,22.37
2018-11-25T01:26:30.206Z,22.27
2018-11-25T01:28:58.395Z,22.07
2018-11-25T01:31:26.570Z,18.62
2018-11-25T01:33:54.763Z,18.92
2018-11-25T01:36:22.951Z,20.75
2018-11-25T01:38:51.151Z,23.05
2018-11-25T01:41:19.314Z,24.35
2018-11-25T01:43:47.523Z,21.57
2018-11-25T01:46:15.694Z,19.50
2018-11-25T01:48:43.887Z,21.85
2018-11-25T01:51:12.067Z,23.87
2018-11-25T01:53:40.269Z,27.55
2018-11-25T01:56:08.439Z,26.12
2018-11-25T01:58:36.634Z,23.73
2018-11-25T02:01:05.396Z,24.10
2018-11-25T02:03:33.523Z,24.63
2018-11-25T02:06:01.756Z,27.22
2018-11-25T02:08:29.890Z,26.17
2018-11-25T02:10:58.083Z,19.98
2018-11-25T02:13:26.255Z,24.63
2018-11-25T02:15:54.446Z,23.10
2018-11-25T02:18:22.639Z,23.45
2018-11-25T02:20:50.827Z,21.90
2018-11-25T02:23:18.999Z,20.27
2018-11-25T02:25:47.206Z,18.92
2018-11-25T02:28:15.390Z,18.00
2018-11-25T02:30:43.579Z,21.48
2018-11-25T02:33:11.760Z,24.18
2018-11-25T02:35:39.950Z,20.17
2018-11-25T02:38:08.139Z,19.52
2018-11-25T02:40:36.322Z,19.60
2018-11-25T02:43:04.514Z,20.75
2018-11-25T02:45:32.594Z,21.17
2018-11-25T02:48:00.768Z,22.93
2018-11-25T02:50:29.710Z,21.10
2018-11-25T02:53:01.010Z,19.85
2018-11-25T02:55:29.119Z,21.20
2018-11-25T02:57:57.307Z,21.48
2018-11-25T03:00:25.500Z,24.43
2018-11-25T03:02:53.670Z,27.65
2018-11-25T03:05:21.773Z,27.00
2018-11-25T03:07:49.943Z,25.72
2018-11-25T03:10:18.035Z,23.95
2018-11-25T03:12:46.224Z,23.50
2018-11-25T03:15:16.337Z,23.77
2018-11-25T03:17:44.477Z,24.27
2018-11-25T03:20:13.631Z,27.35
2018-11-25T03:22:41.731Z,21.73
2018-11-25T03:25:17.595Z,23.30
2018-11-25T03:27:45.723Z,21.73
2018-11-25T03:30:15.847Z,20.88
2018-11-25T03:32:44.738Z,23.73
2018-11-25T03:35:13.387Z,25.95
2018-11-25T03:37:41.516Z,24.85
2018-11-25T03:40:15.504Z,21.40
2018-11-25T03:42:43.621Z,22.02
2018-11-25T03:45:13.825Z,21.30
2018-11-25T03:47:41.938Z,21.12
2018-11-25T03:50:10.915Z,21.17
2018-11-25T03:52:39.035Z,22.10
2018-11-25T03:55:09.443Z,22.80
2018-11-25T03:57:37.542Z,21.27
2018-11-25T04:00:11.342Z,20.00
2018-11-25T04:02:39.460Z,22.10
2018-11-25T04:05:09.250Z,19.73
2018-11-25T04:07:37.366Z,18.92
2018-11-25T04:10:10.134Z,18.30
2018-11-25T04:12:38.455Z,20.68
2018-11-25T04:15:12.448Z,19.85
2018-11-25T04:17:40.530Z,17.95
2018-11-25T04:20:10.820Z,18.55
2018-11-25T04:22:38.979Z,18.60
2018-11-25T04:25:08.479Z,18.67
2018-11-25T04:27:36.709Z,20.50
2018-11-25T04:30:08.020Z,21.00
2018-11-25T04:32:36.131Z,20.30
2018-11-25T04:35:04.307Z,20.82
2018-11-25T04:37:32.403Z,18.75
2018-11-25T04:40:00.586Z,17.40
2018-11-25T04:42:28.781Z,18.67
2018-11-25T04:44:56.958Z,22.90
2018-11-25T04:47:25.043Z,21.12
2018-11-25T04:49:53.232Z,19.45
2018-11-25T04:52:21.315Z,17.90
2018-11-25T04:54:49.505Z,18.07
2018-11-25T04:57:17.711Z,17.98
2018-11-25T04:59:45.911Z,17.27
2018-11-25T05:02:14.092Z,20.62
2018-11-25T05:04:42.392Z,15.50
2018-11-25T05:07:10.579Z,18.17
2018-11-25T05:09:38.751Z,18.62
2018-11-25T05:12:07.861Z,15.53
2018-11-25T05:14:36.073Z,17.62
2018-11-25T05:17:04.231Z,17.98
2018-11-25T05:19:32.426Z,18.50
2018-11-25T05:22:00.602Z,22.55
2018-11-25T05:24:28.794Z,24.05
2018-11-25T05:26:56.975Z,21.07
2018-11-25T05:29:25.174Z,22.20
2018-11-25T05:31:53.507Z,22.15
2018-11-25T05:34:21.642Z,21.52
2018-11-25T05:36:49.829Z,21.48
2018-11-25T05:39:18.019Z,19.25
2018-11-25T05:41:46.291Z,20.97
2018-11-25T05:44:14.400Z,22.27
2018-11-25T05:46:42.566Z,22.45
2018-11-25T05:49:10.770Z,21.82
2018-11-25T05:51:38.943Z,22.52
2018-11-25T05:54:07.151Z,20.55
2018-11-25T05:56:35.331Z,18.12
2018-11-25T05:59:03.523Z,21.75
2018-11-25T06:01:31.699Z,23.80
2018-11-25T06:03:59.894Z,20.05
2018-11-25T06:06:28.081Z,20.17
2018-11-25T06:08:56.258Z,19.05
2018-11-25T06:11:24.450Z,20.25
2018-11-25T06:13:52.643Z,21.00
2018-11-25T06:16:20.827Z,19.73
2018-11-25T06:18:49.003Z,19.70
2018-11-25T06:21:17.194Z,17.48
2018-11-25T06:23:45.383Z,18.65
2018-11-25T06:26:13.571Z,19.65
2018-11-25T06:28:41.765Z,20.02
2018-11-25T06:31:09.960Z,17.92
2018-11-25T06:33:38.130Z,21.33
2018-11-25T06:36:06.314Z,19.23
2018-11-25T06:38:34.494Z,21.40
2018-11-25T06:41:02.696Z,21.55
2018-11-25T06:43:30.879Z,18.70
2018-11-25T06:45:59.070Z,24.27
2018-11-25T06:48:27.251Z,33.08
2018-11-25T06:50:55.443Z,35.90
2018-11-25T06:53:23.623Z,33.65
2018-11-25T06:55:52.279Z,30.02
2018-11-25T06:58:20.402Z,25.15
2018-11-25T07:00:48.603Z,30.25
2018-11-25T07:03:16.785Z,25.50
2018-11-25T07:05:45.057Z,21.87
2018-11-25T07:08:13.163Z,22.87
2018-11-25T07:10:41.350Z,20.23
2018-11-25T07:13:09.543Z,20.00
2018-11-25T07:15:37.723Z,24.02
2018-11-25T07:18:05.906Z,20.88
2018-11-25T07:20:34.107Z,24.90
2018-11-25T07:23:02.278Z,21.90
2018-11-25T07:25:30.467Z,21.25
2018-11-25T07:27:58.651Z,22.40
2018-11-25T07:30:27.782Z,24.92
2018-11-25T07:32:56.012Z,22.37
2018-11-25T07:35:26.266Z,21.45
2018-11-25T07:37:54.412Z,19.20
2018-11-25T07:40:23.254Z,18.45
2018-11-25T07:42:51.475Z,20.27
2018-11-25T07:45:29.738Z,18.02
2018-11-25T07:47:49.906Z,21.45
2018-11-25T07:50:18.067Z,19.32
2018-11-25T07:52:47.057Z,17.70
2018-11-25T07:55:21.276Z,20.52
2018-11-25T07:57:50.286Z,17.30
2018-11-25T08:00:20.400Z,18.40
2018-11-25T08:02:48.522Z,20.75
2018-11-25T08:05:17.899Z,16.15
2018-11-25T08:07:46.055Z,17.07
2018-11-25T08:10:14.990Z,19.60
2018-11-25T08:12:43.487Z,17.87
2018-11-25T08:15:15.554Z,17.02
2018-11-25T08:17:43.677Z,18.10
2018-11-25T08:20:12.861Z,18.48
2018-11-25T08:22:41.011Z,16.97
2018-11-25T08:25:15.174Z,16.77
2018-11-25T08:27:43.287Z,15.90
2018-11-25T08:30:21.070Z,16.07
2018-11-25T08:32:49.466Z,19.37
2018-11-25T08:35:17.887Z,19.15
2018-11-25T08:37:45.983Z,21.40
2018-11-25T08:40:15.003Z,24.65
2018-11-25T08:42:43.103Z,22.55
2018-11-25T08:45:12.139Z,25.02
2018-11-25T08:47:40.226Z,24.98
2018-11-25T08:50:11.299Z,25.77
2018-11-25T08:52:39.575Z,25.05
2018-11-25T08:55:12.875Z,26.73
2018-11-25T08:57:41.022Z,28.10
2018-11-25T09:00:17.132Z,23.47
2018-11-25T09:02:45.415Z,26.48
2018-11-25T09:05:14.461Z,24.72
2018-11-25T09:07:42.699Z,26.60
2018-11-25T09:10:12.031Z,25.70
2018-11-25T09:12:40.207Z,27.10
2018-11-25T09:15:10.147Z,25.10
2018-11-25T09:17:38.279Z,24.12
2018-11-25T09:20:09.499Z,26.70
2018-11-25T09:22:37.623Z,30.68
2018-11-25T09:25:08.748Z,27.42
2018-11-25T09:27:36.858Z,25.10
2018-11-25T09:30:10.044Z,29.35
2018-11-25T09:32:38.147Z,27.77
2018-11-25T09:35:06.799Z,29.75
2018-11-25T09:37:34.891Z,27.02
2018-11-25T09:40:03.095Z,27.20
2018-11-25T09:42:31.305Z,30.70
2018-11-25T09:44:59.502Z,32.17
2018-11-25T09:47:27.677Z,34.27
2018-11-25T09:49:55.787Z,40.28
2018-11-25T09:52:23.887Z,40.25
2018-11-25T09:54:52.023Z,44.63
2018-11-25T09:57:20.218Z,46.73
2018-11-25T09:59:48.414Z,43.75
2018-11-25T10:02:16.538Z,47.58
2018-11-25T10:04:44.622Z,44.08
2018-11-25T10:07:12.775Z,44.40
2018-11-25T10:09:40.885Z,49.00
2018-11-25T10:12:10.063Z,47.53
2018-11-25T10:14:38.268Z,47.80
2018-11-25T10:17:06.371Z,45.83
2018-11-25T10:19:34.507Z,46.37
2018-11-25T10:22:02.707Z,48.80
2018-11-25T10:24:30.899Z,48.02
2018-11-25T10:26:59.100Z,48.20
2018-11-25T10:29:27.192Z,51.25
2018-11-25T10:31:55.363Z,47.35
2018-11-25T10:34:23.535Z,47.75
2018-11-25T10:36:51.740Z,52.88
2018-11-25T10:39:19.843Z,51.15
2018-11-25T10:41:47.994Z,53.10
2018-11-25T10:44:16.106Z,45.67
2018-11-25T10:46:44.288Z,44.48
2018-11-25T10:49:12.463Z,42.05
2018-11-25T10:51:40.652Z,42.65
2018-11-25T10:54:08.835Z,42.38
2018-11-25T10:56:37.022Z,39.98
2018-11-25T10:59:05.253Z,41.35
2018-11-25T11:01:49.512Z,40.48
2018-11-25T11:04:21.863Z,43.98
2018-11-25T11:06:55.491Z,38.85
2018-11-25T11:09:23.667Z,39.18
2018-11-25T11:11:51.873Z,35.03
2018-11-25T11:14:20.035Z,34.58
2018-11-25T11:16:53.843Z,30.05
2018-11-25T11:19:16.440Z,30.15
2018-11-25T11:21:44.599Z,31.40
2018-11-25T11:24:12.782Z,32.83
2018-11-25T11:26:40.963Z,35.70
2018-11-25T11:29:09.147Z,31.93
2018-11-25T11:31:37.368Z,33.35
2018-11-25T11:34:05.539Z,37.42
2018-11-25T11:36:33.720Z,35.50
2018-11-25T11:39:01.915Z,40.52
2018-11-25T11:41:30.096Z,32.38
2018-11-25T11:43:58.267Z,36.40
2018-11-25T11:46:26.468Z,34.40
2018-11-25T11:48:54.646Z,37.78
2018-11-25T11:51:25.823Z,36.58
2018-11-25T11:53:50.923Z,37.23
2018-11-25T11:56:19.096Z,37.28
2018-11-25T11:58:47.271Z,39.05
2018-11-25T12:01:15.488Z,35.65
2018-11-25T12:03:43.647Z,34.60
2018-11-25T12:06:11.732Z,35.13
2018-11-25T12:08:39.951Z,37.42
2018-11-25T12:11:08.100Z,35.55
2018-11-25T12:13:36.194Z,33.20
2018-11-25T12:16:04.557Z,34.10
2018-11-25T12:18:32.679Z,35.45
2018-11-25T12:21:00.756Z,34.35
2018-11-25T12:23:28.935Z,32.25
2018-11-25T12:25:57.106Z,34.20
2018-11-25T12:28:25.207Z,33.13
2018-11-25T12:30:53.383Z,31.80
2018-11-25T12:33:21.462Z,29.95
2018-11-25T12:35:49.560Z,28.65
2018-11-25T12:38:17.747Z,29.35
2018-11-25T12:40:45.947Z,29.15
2018-11-25T12:43:14.127Z,27.50
2018-11-25T12:45:42.303Z,25.70
2018-11-25T12:48:10.404Z,32.38
2018-11-25T12:50:38.571Z,28.20
2018-11-25T12:53:06.687Z,30.15
2018-11-25T12:55:34.867Z,37.80
2018-11-25T12:58:03.060Z,28.47
2018-11-25T13:00:34.509Z,28.32
2018-11-25T13:03:02.620Z,27.25
2018-11-25T13:05:30.865Z,28.45
2018-11-25T13:07:58.963Z,30.40
2018-11-25T13:10:27.150Z,31.42
2018-11-25T13:12:55.337Z,33.18
2018-11-25T13:15:23.529Z,29.70
2018-11-25T13:17:51.695Z,29.30
2018-11-25T13:20:19.808Z,29.15
2018-11-25T13:22:47.890Z,28.62
2018-11-25T13:25:16.867Z,29.05
2018-11-25T13:27:45.075Z,30.37
2018-11-25T13:30:20.302Z,29.35
2018-11-25T13:32:48.104Z,30.90
2018-11-25T13:35:16.307Z,29.07
2018-11-25T13:37:44.383Z,33.28
2018-11-25T13:40:13.768Z,29.98
2018-11-25T13:42:41.875Z,29.25
2018-11-25T13:45:10.343Z,29.18
2018-11-25T13:47:38.612Z,32.55
2018-11-25T13:50:08.920Z,31.45
2018-11-25T13:52:37.899Z,34.03
2018-11-25T13:55:11.678Z,30.72
2018-11-25T13:57:39.799Z,32.08
2018-11-25T14:01:11.359Z,34.85
2018-11-25T14:03:41.183Z,48.65
2018-11-25T14:06:11.648Z,52.83
2018-11-25T14:08:39.847Z,68.57
2018-11-25T14:11:12.603Z,52.33
2018-11-25T14:13:40.683Z,31.23
2018-11-25T14:16:10.628Z,28.42
2018-11-25T14:18:38.707Z,30.32
2018-11-25T14:21:07.047Z,29.48
2018-11-25T14:23:35.126Z,28.25
2018-11-25T14:26:07.268Z,30.70
2018-11-25T14:28:35.338Z,29.48
2018-11-25T14:31:03.432Z,30.23
2018-11-25T14:33:31.507Z,35.33
2018-11-25T14:35:59.603Z,30.95
2018-11-25T14:38:27.686Z,30.37
2018-11-25T14:40:55.781Z,31.05
2018-11-25T14:43:23.935Z,33.80
2018-11-25T14:45:52.007Z,30.95
2018-11-25T14:48:20.083Z,27.82
2018-11-25T14:50:48.171Z,28.98
2018-11-25T14:53:16.299Z,27.70
2018-11-25T14:55:44.398Z,29.85
2018-11-25T14:58:12.603Z,28.73
2018-11-25T15:00:40.807Z,29.95
2018-11-25T15:03:08.914Z,29.80
2018-11-25T15:05:45.103Z,32.85
2018-11-25T15:08:15.955Z,31.57
2018-11-25T15:10:44.058Z,29.45
2018-11-25T15:13:12.203Z,29.90
2018-11-25T15:15:40.326Z,31.50
2018-11-25T15:18:09.135Z,30.82
2018-11-25T15:20:37.366Z,27.52
2018-11-25T15:23:07.742Z,28.35
2018-11-25T15:25:37.385Z,29.20
2018-11-25T15:28:06.616Z,34.73
2018-11-25T15:30:34.862Z,27.55
2018-11-25T15:33:02.995Z,27.27
2018-11-25T15:35:31.191Z,30.00
2018-11-25T15:37:59.371Z,29.63
2018-11-25T15:40:29.051Z,26.87
2018-11-25T15:42:57.171Z,29.42
2018-11-25T15:45:25.379Z,25.77
2018-11-25T15:48:01.395Z,26.65
2018-11-25T15:50:30.006Z,27.02
2018-11-25T15:52:58.115Z,27.32
2018-11-25T15:55:26.325Z,31.25
2018-11-25T15:57:54.407Z,27.67
2018-11-25T16:00:23.682Z,25.02
2018-11-25T16:02:51.844Z,22.80
2018-11-25T16:05:22.493Z,20.43
2018-11-25T16:07:50.622Z,23.65
2018-11-25T16:10:18.721Z,25.27
2018-11-25T16:12:48.332Z,24.43
2018-11-25T16:15:18.068Z,24.50
2018-11-25T16:17:46.313Z,25.43
2018-11-25T16:20:20.638Z,25.08
2018-11-25T16:22:50.234Z,23.70
2018-11-25T16:25:38.439Z,24.30
2018-11-25T16:28:14.292Z,24.07
2018-11-25T16:30:42.490Z,27.00
2018-11-25T16:33:10.687Z,24.90
2018-11-25T16:35:38.875Z,27.85
2018-11-25T16:38:07.642Z,24.90
2018-11-25T16:40:35.793Z,22.60
2018-11-25T16:43:04.160Z,25.72
2018-11-25T16:45:32.328Z,23.00
2018-11-25T16:48:00.526Z,24.82
2018-11-25T16:50:28.709Z,22.40
2018-11-25T16:52:56.912Z,22.02
2018-11-25T16:55:25.081Z,24.47
2018-11-25T16:57:53.259Z,22.13
2018-11-25T17:00:21.460Z,21.77
2018-11-25T17:02:49.624Z,26.40
2018-11-25T17:05:20.149Z,22.35
2018-11-25T17:07:52.122Z,23.47
2018-11-25T17:10:20.219Z,22.05
2018-11-25T17:12:48.452Z,21.60
2018-11-25T17:15:21.896Z,20.35
2018-11-25T17:17:50.053Z,22.50
2018-11-25T17:20:18.351Z,20.72
2018-11-25T17:22:46.515Z,23.75
2018-11-25T17:25:14.670Z,26.87
2018-11-25T17:27:43.033Z,23.45
2018-11-25T17:30:13.099Z,23.57
2018-11-25T17:32:41.573Z,24.47
2018-11-25T17:35:22.449Z,24.85
2018-11-25T17:37:50.556Z,24.87
2018-11-25T17:40:18.747Z,21.95
2018-11-25T17:42:46.938Z,22.35
2018-11-25T17:45:15.135Z,23.30
2018-11-25T17:47:43.458Z,25.00
2018-11-25T17:50:21.435Z,23.00
2018-11-25T17:52:49.654Z,22.05
2018-11-25T17:55:18.482Z,25.30
2018-11-25T17:57:46.618Z,26.33
2018-11-25T18:00:30.599Z,25.12
2018-11-25T18:02:58.802Z,23.25
2018-11-25T18:05:26.967Z,22.20
2018-11-25T18:07:55.148Z,25.27
2018-11-25T18:10:23.318Z,21.23
2018-11-25T18:12:51.883Z,22.98
2018-11-25T18:15:21.111Z,24.40
2018-11-25T18:17:57.457Z,26.45
2018-11-25T18:20:27.822Z,29.90
2018-11-25T18:22:55.930Z,26.02
2018-11-25T18:25:24.043Z,27.50
2018-11-25T18:28:00.048Z,25.30
2018-11-25T18:30:20.440Z,25.57
2018-11-25T18:32:48.582Z,23.20
2018-11-25T18:35:16.769Z,23.02
2018-11-25T18:37:45.040Z,28.73
2018-11-25T18:40:13.707Z,27.17
2018-11-25T18:42:42.723Z,26.35
2018-11-25T18:45:16.090Z,23.38
2018-11-25T18:47:46.789Z,25.70
2018-11-25T18:50:15.659Z,28.30
2018-11-25T18:52:45.425Z,28.47
2018-11-25T18:55:12.580Z,25.48
2018-11-25T18:57:40.799Z,25.17
2018-11-25T19:00:10.523Z,23.80
2018-11-25T19:02:42.607Z,26.60
2018-11-25T19:05:10.919Z,25.02
2018-11-25T19:07:39.067Z,30.30
2018-11-25T19:10:10.200Z,29.10
2018-11-25T19:12:44.027Z,26.52
2018-11-25T19:15:08.723Z,27.93
2018-11-25T19:17:36.843Z,27.30
2018-11-25T19:20:12.979Z,25.57
2018-11-25T19:22:41.579Z,27.07
2018-11-25T19:25:11.237Z,28.40
2018-11-25T19:27:39.591Z,25.80
2018-11-25T19:30:10.852Z,27.42
2018-11-25T19:32:39.490Z,26.30
2018-11-25T19:35:10.287Z,30.57
2018-11-25T19:37:38.431Z,28.90
2018-11-25T19:40:11.883Z,29.63
2018-11-25T19:42:40.020Z,29.23
2018-11-25T19:45:24.232Z,26.93
2018-11-25T19:47:52.422Z,26.75
2018-11-25T19:50:22.347Z,23.52
2018-11-25T19:52:50.455Z,24.75
2018-11-25T19:55:18.658Z,43.38
2018-11-25T19:57:46.826Z,49.25
2018-11-25T20:00:17.547Z,34.15
2018-11-25T20:02:45.666Z,30.88
2018-11-25T20:05:14.110Z,26.75
2018-11-25T20:07:42.931Z,27.70
2018-11-25T20:10:13.259Z,28.92
2018-11-25T20:12:42.516Z,28.83
2018-11-25T20:15:14.711Z,29.67
2018-11-25T20:17:43.114Z,31.77
2018-11-25T20:20:14.206Z,29.67
2018-11-25T20:22:42.331Z,28.67
2018-11-25T20:25:11.403Z,26.07
2018-11-25T20:27:55.406Z,35.95
2018-11-25T20:30:26.871Z,47.53
2018-11-25T20:33:00.583Z,37.65
2018-11-25T20:35:28.743Z,31.55
2018-11-25T20:38:02.227Z,30.92
2018-11-25T20:40:30.343Z,30.68
2018-11-25T20:42:58.543Z,29.18
2018-11-25T20:45:38.563Z,26.65
2018-11-25T20:48:00.755Z,21.45
2018-11-25T20:50:28.923Z,26.30
2018-11-25T20:53:02.531Z,25.50
2018-11-25T20:55:30.634Z,27.30
2018-11-25T20:57:58.815Z,25.37
2018-11-25T21:00:28.418Z,28.47
2018-11-25T21:02:57.483Z,26.40
2018-11-25T21:05:25.636Z,24.77
2018-11-25T21:07:53.816Z,27.62
2018-11-25T21:10:22.043Z,26.65
2018-11-25T21:12:52.330Z,27.80
2018-11-25T21:15:20.429Z,32.08
2018-11-25T21:17:48.623Z,26.97
2018-11-25T21:20:18.203Z,28.62
2018-11-25T21:22:46.331Z,25.97
2018-11-25T21:25:15.605Z,24.57
2018-11-25T21:27:43.755Z,28.47
2018-11-25T21:30:17.971Z,24.90
2018-11-25T21:32:47.148Z,25.77
2018-11-25T21:35:15.231Z,28.35
2018-11-25T21:37:43.331Z,27.95
2018-11-25T21:40:14.562Z,28.40
2018-11-25T21:42:42.663Z,25.55
2018-11-25T21:45:12.063Z,27.02
2018-11-25T21:47:40.168Z,24.95
2018-11-25T21:50:12.434Z,25.57
2018-11-25T21:52:40.533Z,26.57
2018-11-25T21:55:10.970Z,26.87
2018-11-25T21:57:39.082Z,30.57
2018-11-25T22:00:10.755Z,30.10
2018-11-25T22:02:38.935Z,26.12
2018-11-25T22:05:07.811Z,29.65
2018-11-25T22:07:35.923Z,31.02
2018-11-25T22:10:04.389Z,27.35
2018-11-25T22:12:32.512Z,29.00
2018-11-25T22:15:00.701Z,30.95
2018-11-25T22:17:28.888Z,27.93
2018-11-25T22:19:57.067Z,29.00
2018-11-25T22:22:25.247Z,34.70
2018-11-25T22:24:53.439Z,32.23
2018-11-25T22:27:21.632Z,29.37
2018-11-25T22:29:49.823Z,29.40
2018-11-25T22:32:18.003Z,27.42
2018-11-25T22:34:46.191Z,29.20
2018-11-25T22:37:14.370Z,26.80
2018-11-25T22:39:42.583Z,29.23
2018-11-25T22:42:11.767Z,27.17
2018-11-25T22:44:39.870Z,27.07
2018-11-25T22:47:08.047Z,31.73
2018-11-25T22:49:36.168Z,27.07
2018-11-25T22:52:04.677Z,26.70
2018-11-25T22:54:32.807Z,28.55
2018-11-25T22:57:00.997Z,25.00
2018-11-25T22:59:29.197Z,27.93
2018-11-25T23:01:57.375Z,26.82
2018-11-25T23:04:36.985Z,28.20
2018-11-25T23:07:05.110Z,27.13
2018-11-25T23:09:33.295Z,27.05
2018-11-25T23:12:01.491Z,25.43
2018-11-25T23:14:29.686Z,26.62
2018-11-25T23:16:57.858Z,26.33
2018-11-25T23:19:26.045Z,30.82
2018-11-25T23:21:54.234Z,27.00
2018-11-25T23:24:22.430Z,24.72
2018-11-25T23:26:50.602Z,24.35
2018-11-25T23:29:18.807Z,25.97
2018-11-25T23:31:46.999Z,23.02
2018-11-25T23:34:15.163Z,23.80
2018-11-25T23:36:43.355Z,23.62
2018-11-25T23:39:11.550Z,28.62
2018-11-25T23:41:39.729Z,25.35
2018-11-25T23:44:08.151Z,28.85
2018-11-25T23:46:36.311Z,24.75
2018-11-25T23:49:04.490Z,27.13
2018-11-25T23:51:32.701Z,24.55
2018-11-25T23:54:00.864Z,23.95
2018-11-25T23:56:29.051Z,23.50
2018-11-25T23:58:57.227Z,21.60
